createdAt,value
2023-05-05T00:01:24.382Z,9.03
2023-05-05T00:03:51.063Z,9.10
2023-05-05T00:06:18.107Z,9.14
2023-05-05T00:08:44.641Z,9.06
2023-05-05T00:11:12.126Z,8.87
2023-05-05T00:13:38.848Z,8.86
2023-05-05T00:16:06.044Z,8.91
2023-05-05T00:18:33.896Z,8.67
2023-05-05T00:21:01.261Z,9.03
2023-05-05T00:23:27.859Z,8.54
2023-05-05T00:25:54.464Z,8.69
2023-05-05T00:28:21.264Z,8.86
2023-05-05T00:30:47.882Z,8.80
2023-05-05T00:33:14.489Z,8.88
2023-05-05T00:35:41.038Z,8.92
2023-05-05T00:38:07.625Z,8.68
2023-05-05T00:40:34.261Z,8.37
2023-05-05T00:43:00.879Z,8.77
2023-05-05T00:45:27.729Z,8.69
2023-05-05T00:47:56.153Z,8.50
2023-05-05T00:50:23.747Z,8.55
2023-05-05T00:52:51.783Z,8.29
2023-05-05T00:55:18.998Z,8.46
2023-05-05T00:57:46.093Z,8.17
2023-05-05T01:00:13.291Z,8.03
2023-05-05T01:02:40.581Z,8.19
2023-05-05T01:05:09.526Z,8.07
2023-05-05T01:08:03.663Z,8.19
2023-05-05T01:10:48.761Z,8.29
2023-05-05T01:13:36.300Z,8.13
2023-05-05T01:16:20.663Z,7.71
2023-05-05T01:19:12.200Z,7.96
2023-05-05T01:21:56.253Z,8.04
2023-05-05T01:24:58.300Z,8.02
2023-05-05T01:27:34.326Z,7.99
2023-05-05T01:30:38.437Z,7.93
2023-05-05T01:33:08.540Z,7.67
2023-05-05T01:35:43.786Z,7.94
2023-05-05T01:38:16.318Z,7.88
2023-05-05T01:40:52.169Z,7.67
2023-05-05T01:43:21.175Z,7.76
2023-05-05T01:45:49.596Z,7.56
2023-05-05T01:48:19.822Z,7.79
2023-05-05T01:50:48.201Z,7.77
2023-05-05T01:53:18.317Z,7.81
2023-05-05T01:55:46.892Z,7.75
2023-05-05T01:58:15.975Z,7.62
2023-05-05T02:00:44.904Z,7.67
2023-05-05T02:03:14.955Z,7.67
2023-05-05T02:05:43.714Z,7.70
2023-05-05T02:08:11.554Z,7.83
2023-05-05T02:10:40.960Z,7.82
2023-05-05T02:13:10.680Z,7.86
2023-05-05T02:15:39.164Z,7.78
2023-05-05T02:18:06.999Z,7.75
2023-05-05T02:20:34.547Z,7.61
2023-05-05T02:23:01.214Z,7.71
2023-05-05T02:25:40.484Z,7.66
2023-05-05T02:28:15.341Z,7.66
2023-05-05T02:30:43.706Z,7.36
2023-05-05T02:33:13.344Z,7.56
2023-05-05T02:35:41.769Z,7.55
2023-05-05T02:38:17.243Z,7.58
2023-05-05T02:40:46.685Z,7.55
2023-05-05T02:43:16.819Z,7.30
2023-05-05T02:45:43.551Z,7.50
2023-05-05T02:48:13.086Z,7.63
2023-05-05T02:50:39.761Z,7.40
2023-05-05T02:53:06.892Z,7.61
2023-05-05T02:56:18.170Z,7.61
2023-05-05T02:59:23.450Z,7.49
2023-05-05T03:02:21.343Z,7.35
2023-05-05T03:04:56.630Z,7.42
2023-05-05T03:07:30.732Z,7.34
2023-05-05T03:10:07.597Z,7.35
2023-05-05T03:12:39.960Z,7.26
2023-05-05T03:15:10.046Z,7.26
2023-05-05T03:17:37.266Z,7.14
2023-05-05T03:20:07.588Z,7.30
2023-05-05T03:22:38.244Z,7.39
2023-05-05T03:25:06.255Z,7.50
2023-05-05T03:27:34.303Z,7.56
2023-05-05T03:30:01.170Z,7.40
2023-05-05T03:32:27.759Z,7.46
2023-05-05T03:34:54.584Z,7.36
2023-05-05T03:37:21.148Z,7.17
2023-05-05T03:39:47.706Z,7.29
2023-05-05T03:42:14.489Z,6.95
2023-05-05T03:44:41.095Z,7.28
2023-05-05T03:47:07.772Z,7.33
2023-05-05T03:49:34.497Z,7.52
2023-05-05T03:52:01.654Z,7.70
2023-05-05T03:54:28.221Z,7.69
2023-05-05T03:56:55.784Z,7.19
2023-05-05T03:59:22.304Z,7.51
2023-05-05T04:01:49.995Z,7.76
2023-05-05T04:04:16.688Z,7.82
2023-05-05T04:06:43.918Z,7.29
2023-05-05T04:09:12.170Z,6.74
2023-05-05T04:11:38.728Z,7.43
2023-05-05T04:14:05.201Z,7.55
2023-05-05T04:16:31.752Z,7.42
2023-05-05T04:18:58.458Z,7.45
2023-05-05T04:21:25.149Z,6.92
2023-05-05T04:23:52.381Z,7.47
2023-05-05T04:26:18.939Z,7.24
2023-05-05T04:28:45.501Z,7.24
2023-05-05T04:31:12.216Z,7.44
2023-05-05T04:33:38.796Z,7.53
2023-05-05T04:36:05.583Z,7.63
2023-05-05T04:38:32.278Z,7.59
2023-05-05T04:40:59.994Z,7.57
2023-05-05T04:43:27.833Z,7.43
2023-05-05T04:45:56.157Z,7.55
2023-05-05T04:48:23.047Z,7.65
2023-05-05T04:50:49.698Z,7.55
2023-05-05T04:53:16.208Z,7.57
2023-05-05T04:55:42.867Z,7.72
2023-05-05T04:58:09.579Z,7.71
2023-05-05T05:00:37.869Z,7.68
2023-05-05T05:03:04.675Z,7.88
2023-05-05T05:05:31.525Z,7.82
2023-05-05T05:07:58.139Z,7.83
2023-05-05T05:10:24.746Z,8.01
2023-05-05T05:12:52.234Z,7.97
2023-05-05T05:15:19.078Z,8.26
2023-05-05T05:17:45.724Z,8.05
2023-05-05T05:20:12.418Z,8.28
2023-05-05T05:22:39.107Z,8.18
2023-05-05T05:25:06.073Z,8.41
2023-05-05T05:27:32.598Z,8.53
2023-05-05T05:29:59.396Z,8.55
2023-05-05T05:32:26.417Z,8.87
2023-05-05T05:34:53.013Z,8.85
2023-05-05T05:37:19.565Z,9.12
2023-05-05T05:39:52.151Z,9.49
2023-05-05T05:42:19.509Z,9.58
2023-05-05T05:44:46.128Z,9.59
2023-05-05T05:47:12.658Z,9.54
2023-05-05T05:49:39.276Z,9.82
2023-05-05T05:52:06.253Z,9.67
2023-05-05T05:54:34.870Z,10.89
2023-05-05T05:57:02.571Z,11.49
2023-05-05T05:59:29.201Z,11.80
2023-05-05T06:01:56.227Z,12.51
2023-05-05T06:04:23.187Z,13.09
2023-05-05T06:06:49.870Z,13.46
2023-05-05T06:09:16.479Z,13.59
2023-05-05T06:11:43.128Z,14.46
2023-05-05T06:14:09.716Z,14.01
2023-05-05T06:16:36.319Z,13.79
2023-05-05T06:19:04.388Z,14.95
2023-05-05T06:21:31.075Z,14.32
2023-05-05T06:23:57.692Z,14.89
2023-05-05T06:26:24.255Z,15.98
2023-05-05T06:28:50.877Z,16.46
2023-05-05T06:31:17.599Z,17.20
2023-05-05T06:33:44.242Z,17.32
2023-05-05T06:36:10.949Z,17.02
2023-05-05T06:38:37.525Z,16.20
2023-05-05T06:41:04.323Z,15.82
2023-05-05T06:43:31.510Z,16.94
2023-05-05T06:45:58.123Z,16.43
2023-05-05T06:48:25.012Z,16.73
2023-05-05T06:50:51.611Z,17.10
2023-05-05T06:53:18.210Z,16.67
2023-05-05T06:55:46.502Z,17.57
2023-05-05T06:58:13.233Z,17.21
2023-05-05T07:00:40.971Z,17.27
2023-05-05T07:03:07.955Z,16.97
2023-05-05T07:05:34.498Z,17.15
2023-05-05T07:08:01.016Z,17.58
2023-05-05T07:10:28.059Z,18.26
2023-05-05T07:12:55.177Z,18.35
2023-05-05T07:15:28.855Z,19.01
2023-05-05T07:17:56.929Z,18.34
2023-05-05T07:20:24.360Z,18.84
2023-05-05T07:22:51.490Z,19.39
2023-05-05T07:25:18.206Z,19.23
2023-05-05T07:27:45.030Z,18.62
2023-05-05T07:30:15.562Z,19.26
2023-05-05T07:32:44.763Z,20.32
2023-05-05T07:35:11.450Z,20.60
2023-05-05T07:37:38.098Z,20.39
2023-05-05T07:40:05.191Z,20.25
2023-05-05T07:42:31.731Z,19.70
2023-05-05T07:44:58.430Z,19.97
2023-05-05T07:47:25.129Z,19.79
2023-05-05T07:49:51.689Z,20.38
2023-05-05T07:52:33.079Z,19.61
2023-05-05T07:55:04.463Z,21.09
2023-05-05T07:57:30.991Z,19.86
2023-05-05T07:59:57.523Z,20.18
2023-05-05T08:02:24.306Z,19.58
2023-05-05T08:04:50.895Z,19.15
2023-05-05T08:07:17.431Z,20.75
2023-05-05T08:09:44.007Z,20.92
2023-05-05T08:12:12.375Z,21.37
2023-05-05T08:14:40.925Z,21.76
2023-05-05T08:17:07.447Z,23.11
2023-05-05T08:19:34.072Z,21.97
2023-05-05T08:22:01.748Z,21.51
2023-05-05T08:24:28.354Z,22.90
2023-05-05T08:26:56.171Z,23.37
2023-05-05T08:29:23.098Z,23.11
2023-05-05T08:31:49.735Z,23.58
2023-05-05T08:34:16.326Z,22.45
2023-05-05T08:36:42.878Z,22.88
2023-05-05T08:39:09.805Z,22.59
2023-05-05T08:41:36.369Z,23.39
2023-05-05T08:44:03.068Z,22.91
2023-05-05T08:46:31.588Z,23.89
2023-05-05T08:49:00.210Z,24.71
2023-05-05T08:51:31.732Z,25.65
2023-05-05T08:54:02.896Z,25.58
2023-05-05T08:56:34.394Z,23.41
2023-05-05T08:59:02.669Z,24.06
2023-05-05T09:01:32.596Z,24.78
2023-05-05T09:04:00.014Z,26.98
2023-05-05T09:06:27.426Z,25.74
2023-05-05T09:08:54.490Z,26.96
2023-05-05T09:11:22.647Z,25.32
2023-05-05T09:13:49.932Z,23.43
2023-05-05T09:16:16.689Z,23.78
2023-05-05T09:18:43.334Z,23.03
2023-05-05T09:21:21.378Z,23.67
2023-05-05T09:24:09.234Z,24.36
2023-05-05T09:26:38.696Z,22.46
2023-05-05T09:29:06.133Z,23.78
2023-05-05T09:31:36.777Z,25.77
2023-05-05T09:34:15.521Z,26.66
2023-05-05T09:36:47.575Z,26.19
2023-05-05T09:39:19.160Z,24.83
2023-05-05T09:41:46.964Z,25.14
2023-05-05T09:44:16.153Z,26.21
2023-05-05T09:46:53.573Z,25.89
2023-05-05T09:49:26.988Z,25.08
2023-05-05T09:51:54.915Z,24.79
2023-05-05T09:54:23.248Z,24.02
2023-05-05T09:56:50.868Z,23.77
2023-05-05T09:59:17.774Z,22.79
2023-05-05T10:01:45.671Z,23.02
2023-05-05T10:04:31.596Z,23.19
2023-05-05T10:06:59.172Z,21.98
2023-05-05T10:09:27.090Z,22.02
2023-05-05T10:11:56.282Z,23.27
2023-05-05T10:14:25.268Z,24.57
2023-05-05T10:16:54.479Z,24.04
2023-05-05T10:19:25.008Z,24.93
2023-05-05T10:21:54.515Z,24.83
2023-05-05T10:24:50.250Z,26.09
2023-05-05T10:27:23.344Z,26.48
2023-05-05T10:29:52.828Z,26.58
2023-05-05T10:32:56.350Z,25.33
2023-05-05T10:35:22.983Z,24.85
2023-05-05T10:37:52.183Z,24.42
2023-05-05T10:40:22.110Z,25.64
2023-05-05T10:42:51.853Z,25.35
2023-05-05T10:45:18.550Z,24.88
2023-05-05T10:47:45.521Z,23.43
2023-05-05T10:50:29.921Z,25.28
2023-05-05T10:53:39.740Z,27.06
2023-05-05T10:56:14.508Z,26.09
2023-05-05T10:58:58.463Z,23.39
2023-05-05T11:01:33.434Z,24.07
2023-05-05T11:04:22.743Z,24.03
2023-05-05T11:07:09.796Z,25.21
2023-05-05T11:09:57.731Z,26.85
2023-05-05T11:12:24.720Z,27.12
2023-05-05T11:15:22.198Z,27.44
2023-05-05T11:17:49.094Z,26.70
2023-05-05T11:20:16.142Z,25.83
2023-05-05T11:23:05.019Z,25.92
2023-05-05T11:25:35.533Z,25.93
2023-05-05T11:28:08.763Z,25.84
2023-05-05T11:30:59.493Z,25.95
2023-05-05T11:33:38.932Z,26.49
2023-05-05T11:36:07.376Z,26.17
2023-05-05T11:39:02.644Z,26.18
2023-05-05T11:41:32.330Z,25.86
2023-05-05T11:44:14.877Z,25.38
2023-05-05T11:47:06.100Z,26.47
2023-05-05T11:49:38.049Z,27.62
2023-05-05T11:52:12.900Z,28.01
2023-05-05T11:54:41.674Z,28.86
2023-05-05T11:57:11.585Z,30.01
2023-05-05T11:59:49.793Z,29.77
2023-05-05T12:02:18.049Z,29.76
2023-05-05T12:04:46.917Z,29.28
2023-05-05T12:07:22.106Z,29.22
2023-05-05T12:09:49.957Z,29.22
2023-05-05T12:12:16.999Z,29.81
2023-05-05T12:14:47.058Z,29.97
2023-05-05T12:17:14.226Z,30.58
2023-05-05T12:19:52.268Z,30.34
2023-05-05T12:22:24.016Z,29.84
2023-05-05T12:25:01.476Z,30.91
2023-05-05T12:27:28.943Z,31.17
2023-05-05T12:29:57.653Z,30.13
2023-05-05T12:32:27.853Z,28.96
2023-05-05T12:34:57.337Z,29.11
2023-05-05T12:37:26.148Z,27.98
2023-05-05T12:39:55.100Z,27.48
2023-05-05T12:42:22.578Z,27.14
2023-05-05T12:44:49.514Z,26.15
2023-05-05T12:47:32.892Z,26.23
2023-05-05T12:50:00.801Z,24.82
2023-05-05T12:52:44.654Z,25.02
2023-05-05T12:55:11.856Z,24.88
2023-05-05T12:57:39.518Z,24.91
2023-05-05T13:00:14.869Z,24.93
2023-05-05T13:02:41.560Z,24.87
2023-05-05T13:05:08.980Z,25.08
2023-05-05T13:07:35.682Z,24.55
2023-05-05T13:10:10.805Z,24.95
2023-05-05T13:12:37.722Z,24.03
2023-05-05T13:15:04.687Z,23.71
2023-05-05T13:17:34.112Z,23.72
2023-05-05T13:20:01.309Z,23.34
2023-05-05T13:22:27.835Z,23.41
2023-05-05T13:24:54.445Z,23.16
2023-05-05T13:27:21.313Z,23.68
2023-05-05T13:29:47.995Z,23.85
2023-05-05T13:32:14.492Z,23.86
2023-05-05T13:34:42.701Z,23.94
2023-05-05T13:37:09.432Z,23.52
2023-05-05T13:39:36.964Z,24.01
2023-05-05T13:42:03.837Z,24.05
2023-05-05T13:44:30.432Z,23.56
2023-05-05T13:46:57.114Z,23.70
2023-05-05T13:49:24.263Z,23.43
2023-05-05T13:51:50.847Z,23.40
2023-05-05T13:54:17.474Z,23.43
2023-05-05T13:56:44.192Z,22.26
2023-05-05T13:59:10.887Z,23.04
2023-05-05T14:01:37.717Z,22.84
2023-05-05T14:04:05.597Z,22.51
2023-05-05T14:06:33.537Z,22.37
2023-05-05T14:09:00.125Z,22.47
2023-05-05T14:11:26.806Z,21.78
2023-05-05T14:13:53.415Z,21.99
2023-05-05T14:16:20.367Z,21.60
2023-05-05T14:18:46.937Z,22.09
2023-05-05T14:21:13.546Z,22.09
2023-05-05T14:23:40.274Z,21.72
2023-05-05T14:26:08.880Z,21.46
2023-05-05T14:28:35.663Z,20.56
2023-05-05T14:31:02.239Z,20.21
2023-05-05T14:33:28.799Z,20.23
2023-05-05T14:35:55.851Z,20.22
2023-05-05T14:38:22.570Z,20.44
2023-05-05T14:40:49.287Z,20.33
2023-05-05T14:43:15.847Z,19.60
2023-05-05T14:45:44.250Z,19.61
2023-05-05T14:48:10.985Z,19.57
2023-05-05T14:50:41.020Z,20.02
2023-05-05T14:53:07.557Z,19.55
2023-05-05T14:55:34.131Z,19.98
2023-05-05T14:58:00.851Z,20.04
2023-05-05T15:00:27.950Z,20.49
2023-05-05T15:02:54.618Z,20.39
2023-05-05T15:05:21.364Z,20.19
2023-05-05T15:07:47.990Z,20.03
2023-05-05T15:10:15.043Z,20.56
2023-05-05T15:12:42.852Z,20.98
2023-05-05T15:15:10.298Z,20.40
2023-05-05T15:17:38.745Z,20.30
2023-05-05T15:20:06.814Z,20.11
2023-05-05T15:22:33.839Z,20.51
2023-05-05T15:25:00.520Z,20.28
2023-05-05T15:27:27.367Z,20.26
2023-05-05T15:29:55.342Z,20.31
2023-05-05T15:32:22.054Z,19.85
2023-05-05T15:34:50.395Z,19.95
2023-05-05T15:37:17.393Z,19.89
2023-05-05T15:39:43.988Z,19.72
2023-05-05T15:42:10.677Z,19.88
2023-05-05T15:44:37.274Z,20.13
2023-05-05T15:47:04.346Z,19.56
2023-05-05T15:49:31.263Z,19.78
2023-05-05T15:51:58.038Z,19.92
2023-05-05T15:54:24.791Z,19.75
2023-05-05T15:56:52.423Z,19.56
2023-05-05T15:59:19.382Z,19.28
2023-05-05T16:01:46.871Z,19.70
2023-05-05T16:04:13.829Z,19.55
2023-05-05T16:06:41.024Z,19.69
2023-05-05T16:09:07.823Z,19.69
2023-05-05T16:11:34.983Z,19.52
2023-05-05T16:14:01.498Z,19.90
2023-05-05T16:16:28.445Z,19.39
2023-05-05T16:18:55.194Z,19.79
2023-05-05T16:21:22.184Z,19.63
2023-05-05T16:23:48.755Z,19.52
2023-05-05T16:26:15.433Z,19.72
2023-05-05T16:28:42.053Z,19.68
2023-05-05T16:31:11.028Z,19.65
2023-05-05T16:33:40.794Z,19.71
2023-05-05T16:36:10.103Z,19.52
2023-05-05T16:38:37.374Z,19.40
2023-05-05T16:41:04.266Z,19.27
2023-05-05T16:43:31.050Z,19.16
2023-05-05T16:45:57.674Z,19.21
2023-05-05T16:48:24.317Z,19.44
2023-05-05T16:50:51.066Z,18.81
2023-05-05T16:53:17.620Z,19.14
2023-05-05T16:55:44.188Z,19.07
2023-05-05T16:58:10.773Z,18.73
2023-05-05T17:00:37.397Z,18.56
2023-05-05T17:03:04.578Z,18.43
2023-05-05T17:05:31.130Z,18.21
2023-05-05T17:07:57.833Z,18.35
2023-05-05T17:10:24.454Z,17.95
2023-05-05T17:12:51.174Z,18.17
2023-05-05T17:15:17.890Z,18.35
2023-05-05T17:17:44.569Z,18.49
2023-05-05T17:20:12.134Z,18.47
2023-05-05T17:22:38.700Z,18.21
2023-05-05T17:25:06.006Z,18.47
2023-05-05T17:27:35.021Z,18.27
2023-05-05T17:30:01.679Z,18.47
2023-05-05T17:32:28.180Z,18.16
2023-05-05T17:34:54.848Z,18.07
2023-05-05T17:37:21.529Z,17.97
2023-05-05T17:39:48.307Z,17.95
2023-05-05T17:42:16.695Z,17.31
2023-05-05T17:44:43.276Z,17.67
2023-05-05T17:47:10.588Z,17.53
2023-05-05T17:49:37.242Z,17.46
2023-05-05T17:52:03.975Z,17.37
2023-05-05T17:54:30.674Z,17.44
2023-05-05T17:56:57.468Z,17.47
2023-05-05T17:59:24.071Z,17.27
2023-05-05T18:01:50.652Z,17.27
2023-05-05T18:04:17.586Z,17.30
2023-05-05T18:06:44.366Z,17.34
2023-05-05T18:09:11.401Z,17.23
2023-05-05T18:11:38.009Z,17.08
2023-05-05T18:14:04.552Z,17.10
2023-05-05T18:16:31.265Z,16.81
2023-05-05T18:18:57.933Z,16.78
2023-05-05T18:21:24.452Z,16.49
2023-05-05T18:23:51.085Z,16.56
2023-05-05T18:26:17.763Z,16.73
2023-05-05T18:28:44.264Z,16.53
2023-05-05T18:31:10.980Z,16.88
2023-05-05T18:33:37.672Z,17.01
2023-05-05T18:36:04.670Z,16.84
2023-05-05T18:38:32.377Z,16.93
2023-05-05T18:41:00.340Z,16.58
2023-05-05T18:43:26.865Z,16.26
2023-05-05T18:45:53.451Z,16.11
2023-05-05T18:48:20.051Z,15.98
2023-05-05T18:50:47.698Z,15.53
2023-05-05T18:53:14.923Z,15.67
2023-05-05T18:55:43.167Z,15.80
2023-05-05T18:58:09.977Z,15.78
2023-05-05T19:00:38.119Z,15.72
2023-05-05T19:03:05.143Z,15.63
2023-05-05T19:05:31.744Z,15.65
2023-05-05T19:07:58.271Z,15.68
2023-05-05T19:10:24.966Z,15.47
2023-05-05T19:12:51.633Z,15.46
2023-05-05T19:15:18.716Z,15.39
2023-05-05T19:17:45.318Z,15.32
2023-05-05T19:20:11.886Z,15.27
2023-05-05T19:22:38.438Z,15.11
2023-05-05T19:25:05.313Z,15.30
2023-05-05T19:27:35.029Z,15.23
2023-05-05T19:30:01.768Z,15.50
2023-05-05T19:32:28.340Z,15.63
2023-05-05T19:34:54.951Z,15.59
2023-05-05T19:37:21.600Z,15.60
2023-05-05T19:39:49.088Z,15.53
2023-05-05T19:42:16.959Z,15.33
2023-05-05T19:44:43.566Z,15.43
2023-05-05T19:47:10.990Z,15.53
2023-05-05T19:49:37.807Z,15.48
2023-05-05T19:52:04.567Z,15.42
2023-05-05T19:54:31.238Z,15.65
2023-05-05T19:56:57.919Z,15.36
2023-05-05T19:59:24.536Z,15.21
2023-05-05T20:01:51.672Z,15.16
2023-05-05T20:04:18.474Z,15.06
2023-05-05T20:06:45.107Z,14.89
2023-05-05T20:09:11.848Z,14.75
2023-05-05T20:11:38.461Z,14.89
2023-05-05T20:14:05.039Z,15.01
2023-05-05T20:16:31.640Z,15.07
2023-05-05T20:18:58.161Z,14.76
2023-05-05T20:21:24.744Z,15.06
2023-05-05T20:23:51.320Z,14.94
2023-05-05T20:26:18.236Z,14.93
2023-05-05T20:28:45.993Z,14.70
2023-05-05T20:31:14.436Z,14.77
2023-05-05T20:33:41.289Z,14.13
2023-05-05T20:36:08.018Z,14.50
2023-05-05T20:38:34.608Z,14.70
2023-05-05T20:41:01.308Z,14.49
2023-05-05T20:43:27.915Z,14.74
2023-05-05T20:45:54.623Z,14.62
2023-05-05T20:48:21.285Z,14.78
2023-05-05T20:50:47.873Z,14.39
2023-05-05T20:53:15.023Z,14.55
2023-05-05T20:55:41.777Z,14.66
2023-05-05T20:58:08.359Z,14.70
2023-05-05T21:00:35.413Z,14.73
2023-05-05T21:03:02.809Z,14.54
2023-05-05T21:05:31.106Z,14.94
2023-05-05T21:07:59.202Z,15.05
2023-05-05T21:10:27.414Z,15.11
2023-05-05T21:12:54.062Z,15.03
2023-05-05T21:15:20.593Z,15.05
2023-05-05T21:17:47.797Z,15.02
2023-05-05T21:20:14.633Z,15.11
2023-05-05T21:22:41.157Z,15.03
2023-05-05T21:25:16.026Z,15.06
2023-05-05T21:27:42.974Z,15.03
2023-05-05T21:30:11.452Z,15.01
2023-05-05T21:32:39.534Z,14.95
2023-05-05T21:35:08.451Z,15.06
2023-05-05T21:37:37.670Z,15.00
2023-05-05T21:40:06.079Z,14.93
2023-05-05T21:42:32.632Z,14.77
2023-05-05T21:44:59.187Z,15.04
2023-05-05T21:47:27.267Z,15.01
2023-05-05T21:49:53.806Z,15.06
2023-05-05T21:52:21.252Z,14.50
2023-05-05T21:54:47.937Z,15.05
2023-05-05T21:57:14.534Z,14.73
2023-05-05T21:59:41.349Z,14.83
2023-05-05T22:02:07.974Z,14.85
2023-05-05T22:04:34.700Z,14.86
2023-05-05T22:07:01.474Z,14.95
2023-05-05T22:09:28.128Z,14.84
2023-05-05T22:11:55.069Z,14.91
2023-05-05T22:14:21.594Z,14.89
2023-05-05T22:16:48.178Z,14.96
2023-05-05T22:19:14.733Z,14.89
2023-05-05T22:21:41.226Z,14.62
2023-05-05T22:24:07.776Z,14.73
2023-05-05T22:26:34.280Z,14.93
2023-05-05T22:29:01.045Z,14.86
2023-05-05T22:31:27.934Z,14.79
2023-05-05T22:33:54.559Z,14.92
2023-05-05T22:36:21.701Z,14.82
2023-05-05T22:38:48.477Z,14.37
2023-05-05T22:41:15.914Z,14.00
2023-05-05T22:43:42.889Z,14.22
2023-05-05T22:46:09.866Z,13.92
2023-05-05T22:48:36.536Z,13.72
2023-05-05T22:51:03.504Z,13.40
2023-05-05T22:53:30.093Z,13.41
2023-05-05T22:55:58.334Z,13.49
2023-05-05T22:58:25.823Z,13.33
2023-05-05T23:00:52.479Z,13.41
2023-05-05T23:03:19.205Z,13.13
2023-05-05T23:05:45.958Z,13.21
2023-05-05T23:08:12.489Z,12.95
2023-05-05T23:10:39.093Z,13.13
2023-05-05T23:13:05.991Z,13.14
2023-05-05T23:15:32.558Z,13.10
2023-05-05T23:17:59.297Z,12.97
2023-05-05T23:20:26.113Z,13.17
2023-05-05T23:22:52.683Z,13.17
2023-05-05T23:25:19.340Z,13.38
2023-05-05T23:27:45.968Z,13.03
2023-05-05T23:30:12.999Z,13.35
2023-05-05T23:32:39.537Z,13.23
2023-05-05T23:35:06.630Z,13.11
2023-05-05T23:37:33.197Z,13.36
2023-05-05T23:39:59.855Z,13.18
2023-05-05T23:42:26.404Z,12.97
2023-05-05T23:44:52.914Z,13.24
2023-05-05T23:47:19.423Z,13.23
2023-05-05T23:49:45.985Z,13.29
2023-05-05T23:52:12.920Z,13.02
2023-05-05T23:54:39.909Z,12.96
2023-05-05T23:57:06.543Z,13.07
2023-05-05T23:59:33.071Z,13.07
